Data for 05/31/2010

Time Sea-Level Adjusted Pressure Absolute Pressure Temperature Relative Humidity Dew Point   
(mb) (inHg) (mb) (inHg) (C) (F) (%) (C) (F)
00:05 1016 30 846 24.98 11.8 53.3 41 -1.1 30.1
00:10 1016 30 846 24.98 11.6 52.9 41 -1 30.2
00:15 1016 30 846 24.98 11.6 53 40 -1.5 29.4
00:20 1016 30 846 24.98 11.6 52.9 41 -1.1 30.1
00:25 1017 30.03 846 24.98 11.5 52.7 42 -1 30.1
00:30 1016 30 846 24.98 11.5 52.7 40 -1.6 29.1
00:35 1016 30 846 24.98 11.9 53.4 38 -1.8 28.7
00:40 1017 30.03 846 24.98 12.3 54.1 37 -1.9 28.7
00:45 1017 30.03 846 24.98 12.2 53.9 39 -1.1 29.9
00:50 1017 30.03 846 24.98 11.9 53.5 40 -1.4 29.6
00:55 1017 30.03 846 24.98 11.9 53.4 40 -1 30.1
01:00 1017 30.03 846 24.98 11.8 53.2 41 -1 30.2
01:05 1017 30.03 846 24.98 11.8 53.2 39 -1.5 29.3
01:10 1017 30.03 846 24.98 11.9 53.5 39 -1.4 29.5
01:15 1017 30.03 846 24.98 11.8 53.2 41 -1 30.3
01:20 1017 30.03 846 24.98 11.5 52.7 43 -0.7 30.8
01:25 1017 30.03 846 24.98 11.4 52.4 43 -0.6 31
01:30 1017 30.03 846 24.98 11.2 52.2 48 0.7 33.3
01:35 1017 30.03 846 24.98 10.6 51.1 53 1.5 34.7
01:40 1017 30.03 846 24.98 9.9 49.9 56 1.6 34.9
01:45 1017 30.03 846 24.98 9.6 49.2 57 1.5 34.7
01:50 1017 30.03 846 24.98 9.5 49 57 1.4 34.6
01:55 1017 30.03 846 24.98 9.4 48.9 57 1.3 34.3
02:00 1017 30.03 846 24.98 9.4 49 56 1.1 34
02:05 1017 30.03 846 24.98 9.5 49 55 0.8 33.5
02:10 1017 30.03 846 24.98 9.5 49.1 55 0.8 33.5
02:15 1017 30.03 846 24.98 9.5 49.1 54 0.8 33.5
02:20 1017 30.03 846 24.98 9.5 49.1 55 0.9 33.7
02:25 1017 30.03 846 24.98 9.5 49.1 54 0.8 33.4
02:30 1017 30.03 846 24.98 9.5 49.1 54 0.6 33.1
02:35 1017 30.03 846 24.98 9.6 49.2 53 0.5 32.8
02:40 1017 30.03 846 24.98 9.6 49.3 53 0.5 32.8
02:45 1017 30.03 846 24.98 9.7 49.4 52 0.4 32.7
02:50 1017 30.03 846 24.98 9.7 49.4 52 0.4 32.8
02:55 1017 30.03 846 24.98 9.7 49.4 52 0.2 32.4
03:00 1017 30.03 846 24.98 9.7 49.5 51 0.1 32.2
03:05 1017 30.03 846 24.98 9.8 49.6 52 0.4 32.8
03:10 1016 30 846 24.98 9.8 49.6 51 0.1 32.1
03:15 1016 30 846 24.98 9.9 49.8 49 -0.2 31.7
03:20 1016 30 846 24.98 10.1 50.2 48 -0.4 31.4
03:25 1016 30 846 24.98 10.4 50.7 47 -0.3 31.5
03:30 1016 30 846 24.98 10.5 50.8 49 0.2 32.4
03:35 1016 30 846 24.98 10.3 50.6 49 0.2 32.3
03:40 1016 30 846 24.98 10.3 50.6 50 0.4 32.8
03:45 1016 30 846 24.98 10.4 50.6 51 0.8 33.5
03:50 1016 30 846 24.98 10.2 50.4 53 1.2 34.1
03:55 1016 30 846 24.98 9.7 49.5 55 1.2 34.2
04:00 1016 30 846 24.98 9.5 49.2 53 0.4 32.7
04:05 1016 30 846 24.98 9.7 49.4 55 1.1 34
04:10 1016 30 846 24.98 9.6 49.2 56 1.2 34.2
04:15 1016 30 846 24.98 9.4 48.9 57 1.3 34.4
04:20 1016 30 846 24.98 9.3 48.7 55 0.8 33.4
04:25 1016 30 846 24.98 9.3 48.7 57 1.3 34.3
04:30 1016 30 846 24.98 9.1 48.4 58 1.2 34.1
04:35 1016 30 846 24.98 8.9 48 57 1 33.7
04:40 1016 30 846 24.98 8.9 47.9 57 0.9 33.7
04:45 1016 30 846 24.98 8.9 48 58 1 33.8
04:50 1016 30 846 24.98 8.9 48 57 0.8 33.5
04:55 1016 30 846 24.98 8.9 48 58 1.2 34.1
05:00 1016 30 846 24.98 8.8 47.8 62 1.9 35.4
05:05 1016 30 846 24.98 8.5 47.3 60 1.3 34.4
05:10 1016 30 846 24.98 8.5 47.3 63 1.8 35.3
05:15 1016 30 846 24.98 8.5 47.3 63 1.8 35.3
05:20 1016 30 846 24.98 8.4 47.2 60 1.1 34
05:25 1016 30 846 24.98 8.6 47.5 62 1.7 35.1
05:30 1016 30 846 24.98 8.6 47.5 60 1.3 34.4
05:35 1016 30 846 24.98 8.5 47.4 64 2.1 35.8
05:40 1017 30.03 846 24.98 8.4 47.1 64 2.1 35.7
05:45 1017 30.03 846 24.98 8.4 47.1 64 1.9 35.4
05:50 1017 30.03 846 24.98 8.4 47.1 65 2.2 36
05:55 1017 30.03 846 24.98 8.4 47.2 64 2 35.6
06:00 1017 30.03 846 24.98 8.7 47.6 62 1.8 35.3
06:05 1017 30.03 846 24.98 8.7 47.7 63 2 35.6
06:10 1016 30 846 24.98 8.6 47.6 62 1.8 35.3
06:15 1016 30 846 24.98 8.6 47.5 64 2.2 35.9
06:20 1016 30 846 24.98 8.4 47.1 64 2.1 35.7
06:25 1016 30 846 24.98 8.4 47.1 64 1.9 35.5
06:30 1016 30 846 24.98 8.5 47.3 63 2 35.6
06:35 1016 30 846 24.98 8.6 47.5 63 1.9 35.4
06:40 1017 30.03 846 24.98 8.8 47.9 62 1.9 35.5
06:45 1016 30 846 24.98 9 48.2 62 2.2 36
06:50 1016 30 846 24.98 9 48.3 62 2.1 35.8
06:55 1016 30 846 24.98 9.2 48.6 62 2.4 36.3
07:00 1016 30 846 24.98 9.5 49.2 61 2.4 36.3
07:05 1016 30 846 24.98 9.8 49.7 60 2.4 36.4
07:10 1016 30 846 24.98 10.3 50.6 58 2.5 36.4
07:15 1016 30 846 24.98 10.9 51.7 53 1.8 35.3
07:20 1016 30 845 24.95 11.3 52.3 52 1.8 35.3
07:25 1016 30 845 24.95 11.8 53.2 50 1.9 35.4
07:30 1016 30 845 24.95 12.5 54.5 47 1.4 34.6
07:35 1016 30 845 24.95 13 55.4 44 1.2 34.1
07:40 1016 30 845 24.95 13.3 55.9 40 0.1 32.2
07:45 1016 30 845 24.95 13.9 57.1 40 0.7 33.3
07:50 1016 30 845 24.95 14.4 58 40 1.2 34.1
07:55 1016 30 845 24.95 14.5 58.1 48 3.6 38.4
08:00 1016 30 845 24.95 14 57.2 47 2.9 37.2
08:05 1016 30 845 24.95 13.1 55.6 48 2.3 36.2
08:10 1016 30 845 24.95 13.1 55.6 44 1.2 34.2
08:15 1016 30 845 24.95 13 55.3 47 2.1 35.8
08:20 1016 30 845 24.95 13.6 56.4 43 1.4 34.5
08:25 1016 30 845 24.95 14.5 58.1 41 1.7 35
08:30 1016 30 845 24.95 15.1 59.2 40 1.6 34.8
08:35 1016 30 845 24.95 15.3 59.5 40 1.7 35.1
08:40 1016 30 845 24.95 15.5 59.9 39 1.6 34.9
08:45 1016 30 845 24.95 15.4 59.8 40 1.8 35.3
08:50 1016 30 845 24.95 14.9 58.7 40 1.4 34.6
08:55 1016 30 845 24.95 14.4 57.9 39 0.8 33.5
09:00 1016 30 845 24.95 14.8 58.7 38 0.8 33.5
09:05 1016 30 845 24.95 14.7 58.5 38 0.5 32.9
09:10 1016 30 845 24.95 15.3 59.6 38 1.2 34.2
09:15 1016 30 845 24.95 15.3 59.5 40 1.7 35.1
09:20 1016 30 845 24.95 14.7 58.4 39 1 33.8
09:25 1016 30 845 24.95 14.8 58.6 41 1.6 34.8
09:30 1016 30 845 24.95 15.1 59.1 40 1.7 35
09:35 1016 30 845 24.95 14.9 58.9 43 2.7 36.8
09:40 1016 30 845 24.95 14.5 58.1 43 2.1 35.8
09:45 1016 30 845 24.95 14.5 58.1 43 2 35.6
09:50 1016 30 845 24.95 14.7 58.5 42 2.1 35.8
09:55 1016 30 845 24.95 15.3 59.5 42 2.6 36.6
10:00 1016 30 845 24.95 14.9 58.9 41 1.7 35.1
10:05 1016 30 845 24.95 15.1 59.1 39 1.5 34.6
10:10 1016 30 845 24.95 15.5 59.9 39 1.7 35
10:15 1016 30 845 24.95 15 58.9 41 2 35.6
10:20 1016 30 845 24.95 14.7 58.4 41 1.7 35
10:25 1016 30 845 24.95 15.4 59.8 39 1.6 34.9
10:30 1016 30 845 24.95 15.7 60.3 37 1.2 34.2
10:35 1016 30 845 24.95 16 60.8 36 1.1 34
10:40 1016 30 845 24.95 16.3 61.3 35 1 33.7
10:45 1016 30 845 24.95 17.3 63.1 33 1 33.7
10:50 1016 30 845 24.95 17.2 62.9 33 0.9 33.7
10:55 1016 30 845 24.95 17.1 62.7 33 0.7 33.2
11:00 1016 30 845 24.95 17.7 63.8 32 0.9 33.6
11:05 1016 30 845 24.95 18.1 64.5 33 1.5 34.8
11:10 1016 30 845 24.95 18.2 64.8 33 2 35.5
11:15 1016 30 845 24.95 18.3 64.9 32 1.5 34.7
11:20 1016 30 845 24.95 17.1 62.8 33 0.6 33.2
11:25 1016 30 845 24.95 18 64.4 32 1.4 34.4
11:30 1016 30 845 24.95 18.4 65.2 32 1.4 34.5
11:35 1015 29.97 845 24.95 18.3 64.9 33 1.7 35.1
11:40 1015 29.97 845 24.95 17.6 63.8 33 1.3 34.3
11:45 1015 29.97 845 24.95 17 62.6 34 1.2 34.2
11:50 1015 29.97 845 24.95 17.3 63.1 32 0.5 32.8
11:55 1015 29.97 844 24.92 18.5 65.2 30 0.5 33
12:00 1015 29.97 844 24.92 18.8 65.8 30 1 33.8
12:05 1015 29.97 844 24.92 18.9 66 29 0.6 33.1
12:10 1015 29.97 844 24.92 18.2 64.7 30 0.5 32.9
12:15 1015 29.97 844 24.92 17.8 64.1 32 1.2 34.1
12:20 1015 29.97 844 24.92 18.5 65.3 29 0.4 32.7
12:25 1015 29.97 844 24.92 17.9 64.3 30 0.3 32.6
12:30 1015 29.97 844 24.92 17.6 63.6 32 0.8 33.4
12:35 1015 29.97 844 24.92 17.6 63.7 31 0.5 32.9
12:40 1015 29.97 844 24.92 18.4 65 30 0.7 33.2
12:45 1015 29.97 844 24.92 18.3 64.9 31 0.9 33.6
12:50 1015 29.97 844 24.92 18 64.4 30 0.3 32.5
12:55 1015 29.97 844 24.92 19 66.3 28 0.2 32.4
13:00 1015 29.97 844 24.92 18.8 65.9 28 0.2 32.4
13:05 1015 29.97 844 24.92 18.8 65.9 28 -0.1 31.9
13:10 1015 29.97 844 24.92 19.1 66.3 27 -0 32
13:15 1015 29.97 844 24.92 18.7 65.6 28 0.1 32.3
13:20 1015 29.97 844 24.92 19.6 67.3 28 0.7 33.3
13:25 1015 29.97 844 24.92 19.6 67.3 27 0.5 33
13:30 1015 29.97 844 24.92 19.5 67 28 0.8 33.4
13:35 1015 29.97 844 24.92 19.7 67.4 27 0.1 32.2
13:40 1015 29.97 844 24.92 20.1 68.1 26 0.2 32.3
13:45 1015 29.97 844 24.92 19.4 66.8 25 -0.8 30.6
13:50 1014 29.94 844 24.92 19.5 67 26 -0.6 31
13:55 1014 29.94 844 24.92 20.1 68.1 27 0.6 33.1
14:00 1014 29.94 843 24.89 19.8 67.6 28 1.1 33.9
14:05 1014 29.94 843 24.89 20 68 28 1 33.9
14:10 1014 29.94 843 24.89 19.7 67.5 28 0.9 33.5
14:15 1014 29.94 843 24.89 19.9 67.7 28 1.1 33.9
14:20 1014 29.94 843 24.89 19.7 67.4 30 1.7 35
14:25 1014 29.94 843 24.89 18.9 65.9 30 1.1 33.9
14:30 1014 29.94 843 24.89 18.2 64.7 31 1 33.8
14:35 1014 29.94 843 24.89 18.2 64.7 31 0.9 33.6
14:40 1014 29.94 843 24.89 18.3 65 30 0.6 33.2
14:45 1014 29.94 843 24.89 18.9 66.1 30 1.1 34
14:50 1014 29.94 843 24.89 18.4 65.2 31 1.2 34.2
14:55 1014 29.94 843 24.89 18.8 65.9 27 -0.5 31
15:00 1014 29.94 843 24.89 19.8 67.6 28 0.8 33.4
15:05 1014 29.94 843 24.89 20.5 69 27 1.3 34.3
15:10 1013 29.91 843 24.89 20.9 69.6 25 0.5 32.9
15:15 1013 29.91 843 24.89 20.5 69 27 1.1 34
15:20 1013 29.91 843 24.89 20.3 68.6 27 0.9 33.7
15:25 1013 29.91 843 24.89 20 67.9 27 0.5 32.9
15:30 1013 29.91 842 24.86 20.2 68.3 27 0.9 33.6
15:35 1013 29.91 842 24.86 20.4 68.6 27 1.1 34.1
15:40 1013 29.91 842 24.86 19.9 67.9 28 1 33.8
15:45 1013 29.91 842 24.86 19.2 66.5 29 1.1 34
15:50 1013 29.91 842 24.86 19.5 67 32 2.4 36.3
15:55 1013 29.91 842 24.86 18.8 65.8 32 1.8 35.3
16:00 1013 29.91 842 24.86 18.6 65.5 32 1.6 34.9
16:05 1013 29.91 842 24.86 18.4 65.2 32 1.8 35.2
16:10 1013 29.91 842 24.86 18.2 64.7 31 0.8 33.4
16:15 1013 29.91 842 24.86 18.5 65.3 31 1.1 34
16:20 1013 29.91 843 24.89 18.5 65.3 31 1.2 34.1
16:25 1014 29.94 843 24.89 18.5 65.3 31 1.4 34.5
16:30 1014 29.94 843 24.89 17.3 63.1 49 6.5 43.6
16:35 1014 29.94 843 24.89 15.2 59.3 54 5.9 42.6
16:40 1014 29.94 843 24.89 14.8 58.6 57 6.4 43.5
16:45 1014 29.94 843 24.89 14.4 57.9 59 6.7 44
16:50 1014 29.94 844 24.92 14.1 57.4 66 7.9 46.2
16:55 1015 29.97 844 24.92 13.5 56.3 71 8.3 47
17:00 1015 29.97 844 24.92 13.1 55.5 71 8 46.4
17:05 1015 29.97 844 24.92 12.4 54.4 73 7.7 45.9
17:10 1015 29.97 844 24.92 12.4 54.4 72 7.6 45.6
17:15 1015 29.97 844 24.92 12.6 54.8 70 7.3 45.1
17:20 1015 29.97 844 24.92 12.4 54.3 71 7.4 45.3
17:25 1015 29.97 844 24.92 12.5 54.5 70 7.3 45.1
17:30 1015 29.97 844 24.92 12.7 54.9 66 6.6 43.9
17:35 1015 29.97 844 24.92 12.5 54.5 67 6.7 44
17:40 1015 29.97 844 24.92 12.6 54.7 67 6.7 44
17:45 1015 29.97 844 24.92 12.7 54.9 63 5.8 42.5
17:50 1015 29.97 844 24.92 12.8 55 62 5.7 42.2
17:55 1015 29.97 844 24.92 13 55.3 61 5.8 42.4
18:00 1015 29.97 844 24.92 13.7 56.6 57 5.5 41.8
18:05 1015 29.97 844 24.92 14.2 57.6 57 5.8 42.4
18:10 1014 29.94 844 24.92 14.1 57.3 57 5.9 42.6
18:15 1014 29.94 844 24.92 13.7 56.6 66 7.5 45.5
18:20 1014 29.94 844 24.92 13 55.3 67 7.1 44.7
18:25 1015 29.97 844 24.92 13 55.4 65 6.6 43.9
18:30 1015 29.97 844 24.92 13.1 55.6 62 6.1 43
18:35 1015 29.97 844 24.92 13.2 55.7 62 6 42.9
18:40 1015 29.97 844 24.92 13.1 55.6 64 6.6 43.9
18:45 1015 29.97 844 24.92 13.2 55.7 65 6.7 44.1
18:50 1015 29.97 844 24.92 13.2 55.8 64 6.7 44
18:55 1015 29.97 844 24.92 13.2 55.8 64 6.7 44.1
19:00 1015 29.97 844 24.92 13.1 55.6 67 7.1 44.8
19:05 1015 29.97 844 24.92 12.9 55.1 72 7.9 46.2
19:10 1015 29.97 844 24.92 12.5 54.6 71 7.5 45.5
19:15 1015 29.97 845 24.95 12.1 53.7 78 8.3 47
19:20 1016 30 845 24.95 11.8 53.3 81 8.7 47.7
19:25 1016 30 845 24.95 11.4 52.5 83 8.7 47.6
19:30 1016 30 845 24.95 10.6 51 86 8.4 47.1
19:35 1016 30 845 24.95 10.1 50.1 86 7.8 46
19:40 1016 30 845 24.95 9.8 49.7 86 7.7 45.9
19:45 1016 30 845 24.95 9.8 49.7 86 7.6 45.8
19:50 1016 30 845 24.95 9.8 49.6 84 7.2 44.9
19:55 1016 30 845 24.95 9.7 49.4 82 6.8 44.2
20:00 1016 30 845 24.95 9.6 49.2 86 7.3 45.1
20:05 1016 30 845 24.95 9.5 49.2 87 7.5 45.5
20:10 1015 29.97 845 24.95 9.3 48.7 90 7.7 45.8
20:15 1015 29.97 845 24.95 9.2 48.6 91 7.8 46
20:20 1015 29.97 845 24.95 9.3 48.7 90 7.8 46
20:25 1015 29.97 845 24.95 9.4 48.9 90 7.9 46.2
20:30 1015 29.97 844 24.92 9.4 48.9 91 8 46.4
20:35 1015 29.97 844 24.92 9.4 48.8 91 8 46.4
20:40 1015 29.97 844 24.92 9.4 48.8 91 7.9 46.2
20:45 1015 29.97 844 24.92 9.3 48.8 91 7.9 46.2
20:50 1015 29.97 844 24.92 9.3 48.7 89 7.6 45.6
20:55 1015 29.97 844 24.92 9.2 48.5 90 7.6 45.6
21:00 1015 29.97 844 24.92 9.2 48.5 90 7.6 45.6
21:05 1015 29.97 844 24.92 9.3 48.7 89 7.5 45.5
21:10 1015 29.97 844 24.92 9.3 48.7 88 7.4 45.4
21:15 1015 29.97 844 24.92 9.3 48.7 90 7.7 45.8
21:20 1015 29.97 844 24.92 9.3 48.7 87 7.2 45
21:25 1015 29.97 844 24.92 9.4 48.9 86 7.2 44.9
21:30 1015 29.97 845 24.95 9.5 49 87 7.4 45.3
21:35 1015 29.97 845 24.95 9.5 49 86 7.3 45.2
21:40 1015 29.97 845 24.95 9.5 49.1 87 7.5 45.4
21:45 1015 29.97 845 24.95 9.4 49 88 7.6 45.6
21:50 1015 29.97 845 24.95 9.4 48.9 89 7.7 45.8
21:55 1016 30 845 24.95 9.5 49 89 7.8 46
22:00 1016 30 845 24.95 9.3 48.8 89 7.6 45.7
22:05 1016 30 845 24.95 9.2 48.6 90 7.6 45.8
22:10 1016 30 845 24.95 9.2 48.6 91 7.9 46.2
22:15 1016 30 845 24.95 9.2 48.6 91 7.9 46.2
22:20 1016 30 845 24.95 9.1 48.4 90 7.5 45.6
22:25 1016 30 845 24.95 9.2 48.5 88 7.2 45
22:30 1016 30 845 24.95 9.3 48.7 89 7.5 45.6
22:35 1016 30 845 24.95 9.6 49.2 90 8 46.4
22:40 1016 30 845 24.95 9.7 49.5 89 8.1 46.5
22:45 1016 30 845 24.95 9.8 49.6 89 8.1 46.6
22:50 1016 30 846 24.98 9.8 49.6 90 8.2 46.8
22:55 1016 30 846 24.98 9.7 49.4 91 8.2 46.8
23:00 1016 30 846 24.98 9.5 49 92 8.2 46.7
23:05 1016 30 846 24.98 9.4 48.9 92 8.1 46.7
23:10 1016 30 846 24.98 9.3 48.7 92 8.1 46.6
23:15 1016 30 846 24.98 9.2 48.6 92 8.1 46.5
23:20 1016 30 846 24.98 9.2 48.5 93 8 46.5
23:25 1016 30 846 24.98 9.1 48.4 93 8 46.5
23:30 1016 30 845 24.95 9.1 48.4 93 8 46.5
23:35 1016 30 845 24.95 9 48.2 93 8 46.4
23:40 1016 30 845 24.95 9 48.2 93 7.9 46.3
23:45 1016 30 845 24.95 8.9 47.9 94 8 46.3
23:50 1016 30 845 24.95 8.8 47.8 95 8 46.4
23:55 1016 30 845 24.95 8.7 47.7 95 8 46.4
24:00 1016 30 845 24.95 8.8 47.8 95 8 46.5